sensor_id;sensor_type;location;lat;lon;timestamp;P1;durP1;ratioP1;P2;durP2;ratioP2
50002;SDS011;35889;51.442;6.408;2023-03-01T00:00:38;0.90;;;0.90;;
50002;SDS011;35889;51.442;6.408;2023-03-01T00:03:03;1.00;;;1.00;;
50002;SDS011;35889;51.442;6.408;2023-03-01T00:05:29;1.00;;;1.00;;
50002;SDS011;35889;51.442;6.408;2023-03-01T00:07:54;1.00;;;1.00;;
50002;SDS011;35889;51.442;6.408;2023-03-01T00:10:19;1.00;;;1.00;;
50002;SDS011;35889;51.442;6.408;2023-03-01T00:12:45;1.00;;;1.00;;
50002;SDS011;35889;51.442;6.408;2023-03-01T00:15:10;1.00;;;1.00;;
50002;SDS011;35889;51.442;6.408;2023-03-01T00:17:36;0.90;;;0.90;;
50002;SDS011;35889;51.442;6.408;2023-03-01T00:20:02;1.00;;;1.00;;
50002;SDS011;35889;51.442;6.408;2023-03-01T00:22:27;1.00;;;1.00;;
50002;SDS011;35889;51.442;6.408;2023-03-01T00:24:55;0.95;;;0.95;;
50002;SDS011;35889;51.442;6.408;2023-03-01T00:27:21;0.90;;;0.90;;
50002;SDS011;35889;51.442;6.408;2023-03-01T00:29:46;0.95;;;0.95;;
50002;SDS011;35889;51.442;6.408;2023-03-01T00:32:12;1.05;;;1.05;;
50002;SDS011;35889;51.442;6.408;2023-03-01T00:34:37;1.00;;;1.00;;
50002;SDS011;35889;51.442;6.408;2023-03-01T00:37:03;1.00;;;1.00;;
50002;SDS011;35889;51.442;6.408;2023-03-01T00:39:30;0.90;;;0.90;;
50002;SDS011;35889;51.442;6.408;2023-03-01T00:41:56;1.00;;;1.00;;
50002;SDS011;35889;51.442;6.408;2023-03-01T00:44:22;1.02;;;1.02;;
50002;SDS011;35889;51.442;6.408;2023-03-01T00:46:48;1.00;;;1.00;;
50002;SDS011;35889;51.442;6.408;2023-03-01T00:49:13;1.00;;;1.00;;
50002;SDS011;35889;51.442;6.408;2023-03-01T00:51:39;1.00;;;1.00;;
50002;SDS011;35889;51.442;6.408;2023-03-01T00:54:09;1.00;;;1.00;;
50002;SDS011;35889;51.442;6.408;2023-03-01T00:56:35;1.00;;;1.00;;
50002;SDS011;35889;51.442;6.408;2023-03-01T00:59:00;1.00;;;1.00;;
50002;SDS011;35889;51.442;6.408;2023-03-01T01:01:27;0.98;;;0.98;;
50002;SDS011;35889;51.442;6.408;2023-03-01T01:03:57;0.82;;;0.82;;
50002;SDS011;35889;51.442;6.408;2023-03-01T01:06:28;1.00;;;1.00;;
50002;SDS011;35889;51.442;6.408;2023-03-01T01:08:57;1.10;;;1.10;;
50002;SDS011;35889;51.442;6.408;2023-03-01T01:11:26;1.00;;;1.00;;
50002;SDS011;35889;51.442;6.408;2023-03-01T01:13:52;1.00;;;1.00;;
50002;SDS011;35889;51.442;6.408;2023-03-01T01:16:18;1.00;;;1.00;;
50002;SDS011;35889;51.442;6.408;2023-03-01T01:18:44;1.10;;;1.10;;
50002;SDS011;35889;51.442;6.408;2023-03-01T01:21:12;1.00;;;1.00;;
50002;SDS011;35889;51.442;6.408;2023-03-01T01:23:39;1.10;;;1.10;;
50002;SDS011;35889;51.442;6.408;2023-03-01T01:26:10;1.10;;;1.10;;
50002;SDS011;35889;51.442;6.408;2023-03-01T01:28:37;1.00;;;1.00;;
50002;SDS011;35889;51.442;6.408;2023-03-01T01:31:02;1.10;;;1.10;;
50002;SDS011;35889;51.442;6.408;2023-03-01T01:33:28;1.00;;;1.00;;
50002;SDS011;35889;51.442;6.408;2023-03-01T01:35:55;1.00;;;1.00;;
50002;SDS011;35889;51.442;6.408;2023-03-01T01:38:20;1.10;;;1.10;;
50002;SDS011;35889;51.442;6.408;2023-03-01T01:40:46;1.10;;;1.10;;
50002;SDS011;35889;51.442;6.408;2023-03-01T01:43:47;1.10;;;1.10;;
50002;SDS011;35889;51.442;6.408;2023-03-01T01:48:56;1.10;;;1.10;;
50002;SDS011;35889;51.442;6.408;2023-03-01T01:51:44;1.10;;;1.10;;
50002;SDS011;35889;51.442;6.408;2023-03-01T01:54:18;1.10;;;1.10;;
50002;SDS011;35889;51.442;6.408;2023-03-01T01:56:51;1.10;;;1.10;;
50002;SDS011;35889;51.442;6.408;2023-03-01T01:59:18;1.05;;;1.05;;
50002;SDS011;35889;51.442;6.408;2023-03-01T02:01:44;1.10;;;1.10;;
50002;SDS011;35889;51.442;6.408;2023-03-01T02:04:10;1.10;;;1.10;;
50002;SDS011;35889;51.442;6.408;2023-03-01T02:06:37;1.10;;;1.10;;
50002;SDS011;35889;51.442;6.408;2023-03-01T02:09:08;1.10;;;1.10;;
50002;SDS011;35889;51.442;6.408;2023-03-01T02:11:39;1.10;;;1.10;;
50002;SDS011;35889;51.442;6.408;2023-03-01T02:14:05;1.00;;;1.00;;
50002;SDS011;35889;51.442;6.408;2023-03-01T02:16:30;1.00;;;1.00;;
50002;SDS011;35889;51.442;6.408;2023-03-01T02:18:56;1.00;;;1.00;;
50002;SDS011;35889;51.442;6.408;2023-03-01T02:21:39;1.10;;;1.10;;
50002;SDS011;35889;51.442;6.408;2023-03-01T02:27:04;1.10;;;1.10;;
50002;SDS011;35889;51.442;6.408;2023-03-01T02:29:30;1.00;;;1.00;;
50002;SDS011;35889;51.442;6.408;2023-03-01T02:31:56;1.00;;;1.00;;
50002;SDS011;35889;51.442;6.408;2023-03-01T02:34:25;1.02;;;1.02;;
50002;SDS011;35889;51.442;6.408;2023-03-01T02:37:03;1.10;;;1.10;;
50002;SDS011;35889;51.442;6.408;2023-03-01T02:39:42;1.10;;;1.10;;
50002;SDS011;35889;51.442;6.408;2023-03-01T02:42:12;1.00;;;1.00;;
50002;SDS011;35889;51.442;6.408;2023-03-01T02:44:39;1.10;;;1.10;;
50002;SDS011;35889;51.442;6.408;2023-03-01T02:47:05;1.10;;;1.10;;
50002;SDS011;35889;51.442;6.408;2023-03-01T02:49:32;1.10;;;1.10;;
50002;SDS011;35889;51.442;6.408;2023-03-01T02:57:31;1.10;;;1.10;;
50002;SDS011;35889;51.442;6.408;2023-03-01T02:59:59;1.10;;;1.10;;
50002;SDS011;35889;51.442;6.408;2023-03-01T03:02:32;1.10;;;1.10;;
50002;SDS011;35889;51.442;6.408;2023-03-01T03:05:10;1.10;;;1.10;;
50002;SDS011;35889;51.442;6.408;2023-03-01T03:07:57;1.10;;;1.10;;
50002;SDS011;35889;51.442;6.408;2023-03-01T03:10:26;1.10;;;1.10;;
50002;SDS011;35889;51.442;6.408;2023-03-01T03:12:56;1.10;;;1.10;;
50002;SDS011;35889;51.442;6.408;2023-03-01T03:15:23;1.00;;;1.00;;
50002;SDS011;35889;51.442;6.408;2023-03-01T03:17:49;1.10;;;1.10;;
50002;SDS011;35889;51.442;6.408;2023-03-01T03:22:44;1.10;;;1.10;;
50002;SDS011;35889;51.442;6.408;2023-03-01T03:25:10;1.02;;;1.02;;
50002;SDS011;35889;51.442;6.408;2023-03-01T03:27:36;1.10;;;1.10;;
50002;SDS011;35889;51.442;6.408;2023-03-01T03:30:03;1.02;;;1.02;;
50002;SDS011;35889;51.442;6.408;2023-03-01T03:32:34;1.00;;;1.00;;
50002;SDS011;35889;51.442;6.408;2023-03-01T03:35:00;1.00;;;1.00;;
50002;SDS011;35889;51.442;6.408;2023-03-01T03:37:26;1.10;;;1.10;;
50002;SDS011;35889;51.442;6.408;2023-03-01T03:40:10;1.00;;;1.00;;
50002;SDS011;35889;51.442;6.408;2023-03-01T03:42:40;1.10;;;1.10;;
50002;SDS011;35889;51.442;6.408;2023-03-01T03:45:06;1.10;;;1.10;;
50002;SDS011;35889;51.442;6.408;2023-03-01T03:47:32;1.00;;;1.00;;
50002;SDS011;35889;51.442;6.408;2023-03-01T03:49:57;1.10;;;1.10;;
50002;SDS011;35889;51.442;6.408;2023-03-01T03:52:22;1.00;;;1.00;;
50002;SDS011;35889;51.442;6.408;2023-03-01T03:54:48;1.10;;;1.10;;
50002;SDS011;35889;51.442;6.408;2023-03-01T03:57:13;1.10;;;1.10;;
50002;SDS011;35889;51.442;6.408;2023-03-01T03:59:39;1.10;;;1.10;;
50002;SDS011;35889;51.442;6.408;2023-03-01T04:02:04;1.00;;;1.00;;
50002;SDS011;35889;51.442;6.408;2023-03-01T04:04:30;1.10;;;1.10;;
50002;SDS011;35889;51.442;6.408;2023-03-01T04:06:56;1.00;;;1.00;;
50002;SDS011;35889;51.442;6.408;2023-03-01T04:09:21;1.10;;;1.10;;
50002;SDS011;35889;51.442;6.408;2023-03-01T04:11:46;1.00;;;1.00;;
50002;SDS011;35889;51.442;6.408;2023-03-01T04:14:12;1.00;;;1.00;;
50002;SDS011;35889;51.442;6.408;2023-03-01T04:16:37;1.10;;;1.10;;
50002;SDS011;35889;51.442;6.408;2023-03-01T04:19:02;1.10;;;1.10;;
50002;SDS011;35889;51.442;6.408;2023-03-01T04:21:28;1.10;;;1.10;;
50002;SDS011;35889;51.442;6.408;2023-03-01T04:23:53;1.10;;;1.10;;
50002;SDS011;35889;51.442;6.408;2023-03-01T04:26:19;1.10;;;1.10;;
50002;SDS011;35889;51.442;6.408;2023-03-01T04:28:45;1.10;;;1.10;;
50002;SDS011;35889;51.442;6.408;2023-03-01T04:31:14;1.10;;;1.10;;
50002;SDS011;35889;51.442;6.408;2023-03-01T04:33:47;1.10;;;1.10;;
50002;SDS011;35889;51.442;6.408;2023-03-01T04:36:15;1.10;;;1.10;;
50002;SDS011;35889;51.442;6.408;2023-03-01T04:38:41;1.10;;;1.10;;
50002;SDS011;35889;51.442;6.408;2023-03-01T04:41:08;1.10;;;1.10;;
50002;SDS011;35889;51.442;6.408;2023-03-01T04:43:35;1.10;;;1.10;;
50002;SDS011;35889;51.442;6.408;2023-03-01T04:46:04;1.10;;;1.10;;
50002;SDS011;35889;51.442;6.408;2023-03-01T04:48:33;1.10;;;1.10;;
50002;SDS011;35889;51.442;6.408;2023-03-01T04:50:59;1.10;;;1.10;;
50002;SDS011;35889;51.442;6.408;2023-03-01T04:53:25;1.00;;;1.00;;
50002;SDS011;35889;51.442;6.408;2023-03-01T04:55:51;1.10;;;1.10;;
50002;SDS011;35889;51.442;6.408;2023-03-01T04:58:16;1.10;;;1.10;;
50002;SDS011;35889;51.442;6.408;2023-03-01T05:00:42;1.10;;;1.10;;
50002;SDS011;35889;51.442;6.408;2023-03-01T05:03:07;1.10;;;1.10;;
50002;SDS011;35889;51.442;6.408;2023-03-01T05:05:35;1.10;;;1.10;;
50002;SDS011;35889;51.442;6.408;2023-03-01T05:08:03;1.10;;;1.10;;
50002;SDS011;35889;51.442;6.408;2023-03-01T05:10:30;1.10;;;1.10;;
50002;SDS011;35889;51.442;6.408;2023-03-01T05:12:57;1.08;;;1.08;;
50002;SDS011;35889;51.442;6.408;2023-03-01T05:15:23;1.10;;;1.10;;
50002;SDS011;35889;51.442;6.408;2023-03-01T05:17:50;1.10;;;1.10;;
50002;SDS011;35889;51.442;6.408;2023-03-01T05:20:17;1.10;;;1.10;;
50002;SDS011;35889;51.442;6.408;2023-03-01T05:22:42;1.10;;;1.10;;
50002;SDS011;35889;51.442;6.408;2023-03-01T05:25:08;1.10;;;1.10;;
50002;SDS011;35889;51.442;6.408;2023-03-01T05:27:34;1.05;;;1.05;;
50002;SDS011;35889;51.442;6.408;2023-03-01T05:29:59;1.10;;;1.10;;
50002;SDS011;35889;51.442;6.408;2023-03-01T05:32:38;1.00;;;1.00;;
50002;SDS011;35889;51.442;6.408;2023-03-01T05:35:05;1.10;;;1.10;;
50002;SDS011;35889;51.442;6.408;2023-03-01T05:37:30;1.00;;;1.00;;
50002;SDS011;35889;51.442;6.408;2023-03-01T05:39:56;1.02;;;1.02;;
50002;SDS011;35889;51.442;6.408;2023-03-01T05:42:21;1.02;;;1.02;;
50002;SDS011;35889;51.442;6.408;2023-03-01T05:44:46;1.10;;;1.10;;
50002;SDS011;35889;51.442;6.408;2023-03-01T05:47:12;1.10;;;1.10;;
50002;SDS011;35889;51.442;6.408;2023-03-01T05:49:37;1.10;;;1.10;;
50002;SDS011;35889;51.442;6.408;2023-03-01T05:52:03;1.10;;;1.10;;
50002;SDS011;35889;51.442;6.408;2023-03-01T05:54:28;1.10;;;1.10;;
50002;SDS011;35889;51.442;6.408;2023-03-01T05:56:53;1.00;;;1.00;;
50002;SDS011;35889;51.442;6.408;2023-03-01T05:59:19;1.00;;;1.00;;
50002;SDS011;35889;51.442;6.408;2023-03-01T06:01:44;1.00;;;1.00;;
50002;SDS011;35889;51.442;6.408;2023-03-01T06:04:10;1.15;;;1.15;;
50002;SDS011;35889;51.442;6.408;2023-03-01T06:06:36;1.10;;;1.10;;
50002;SDS011;35889;51.442;6.408;2023-03-01T06:09:02;1.10;;;1.10;;
50002;SDS011;35889;51.442;6.408;2023-03-01T06:11:29;1.10;;;1.10;;
50002;SDS011;35889;51.442;6.408;2023-03-01T06:13:54;1.00;;;1.00;;
50002;SDS011;35889;51.442;6.408;2023-03-01T06:16:19;1.00;;;1.00;;
50002;SDS011;35889;51.442;6.408;2023-03-01T06:18:45;1.05;;;1.05;;
50002;SDS011;35889;51.442;6.408;2023-03-01T06:21:10;1.10;;;1.10;;
50002;SDS011;35889;51.442;6.408;2023-03-01T06:23:36;1.00;;;1.00;;
50002;SDS011;35889;51.442;6.408;2023-03-01T06:26:05;1.10;;;1.10;;
50002;SDS011;35889;51.442;6.408;2023-03-01T06:28:31;1.20;;;1.20;;
50002;SDS011;35889;51.442;6.408;2023-03-01T06:30:57;1.10;;;1.10;;
50002;SDS011;35889;51.442;6.408;2023-03-01T06:33:22;1.10;;;1.10;;
50002;SDS011;35889;51.442;6.408;2023-03-01T06:35:49;1.10;;;1.10;;
50002;SDS011;35889;51.442;6.408;2023-03-01T06:38:15;1.10;;;1.10;;
50002;SDS011;35889;51.442;6.408;2023-03-01T06:40:42;1.00;;;1.00;;
50002;SDS011;35889;51.442;6.408;2023-03-01T06:43:07;1.10;;;1.10;;
50002;SDS011;35889;51.442;6.408;2023-03-01T06:45:33;1.10;;;1.10;;
50002;SDS011;35889;51.442;6.408;2023-03-01T06:48:05;1.10;;;1.10;;
50002;SDS011;35889;51.442;6.408;2023-03-01T06:50:31;1.10;;;1.10;;
50002;SDS011;35889;51.442;6.408;2023-03-01T06:52:56;1.10;;;1.10;;
50002;SDS011;35889;51.442;6.408;2023-03-01T06:55:22;1.10;;;1.10;;
50002;SDS011;35889;51.442;6.408;2023-03-01T06:57:48;1.10;;;1.10;;
50002;SDS011;35889;51.442;6.408;2023-03-01T07:00:13;1.10;;;1.10;;
50002;SDS011;35889;51.442;6.408;2023-03-01T07:02:39;1.10;;;1.10;;
50002;SDS011;35889;51.442;6.408;2023-03-01T07:05:05;1.10;;;1.10;;
50002;SDS011;35889;51.442;6.408;2023-03-01T07:07:30;1.10;;;1.10;;
50002;SDS011;35889;51.442;6.408;2023-03-01T07:09:56;1.02;;;1.02;;
50002;SDS011;35889;51.442;6.408;2023-03-01T07:12:21;1.10;;;1.10;;
50002;SDS011;35889;51.442;6.408;2023-03-01T07:14:47;1.10;;;1.10;;
50002;SDS011;35889;51.442;6.408;2023-03-01T07:17:12;1.10;;;1.10;;
50002;SDS011;35889;51.442;6.408;2023-03-01T07:19:38;1.10;;;1.10;;
50002;SDS011;35889;51.442;6.408;2023-03-01T07:22:03;1.10;;;1.10;;
50002;SDS011;35889;51.442;6.408;2023-03-01T07:24:29;1.10;;;1.10;;
50002;SDS011;35889;51.442;6.408;2023-03-01T07:26:54;1.10;;;1.10;;
50002;SDS011;35889;51.442;6.408;2023-03-01T07:29:20;1.10;;;1.10;;
50002;SDS011;35889;51.442;6.408;2023-03-01T07:31:45;1.10;;;1.10;;
50002;SDS011;35889;51.442;6.408;2023-03-01T07:34:11;1.10;;;1.10;;
50002;SDS011;35889;51.442;6.408;2023-03-01T07:36:37;1.00;;;1.00;;
50002;SDS011;35889;51.442;6.408;2023-03-01T07:39:02;1.10;;;1.10;;
50002;SDS011;35889;51.442;6.408;2023-03-01T07:41:29;1.05;;;1.05;;
50002;SDS011;35889;51.442;6.408;2023-03-01T07:43:54;1.10;;;1.10;;
50002;SDS011;35889;51.442;6.408;2023-03-01T07:46:20;1.00;;;1.00;;
50002;SDS011;35889;51.442;6.408;2023-03-01T07:48:46;1.00;;;1.00;;
50002;SDS011;35889;51.442;6.408;2023-03-01T07:51:11;1.08;;;1.08;;
50002;SDS011;35889;51.442;6.408;2023-03-01T07:53:37;1.10;;;1.10;;
50002;SDS011;35889;51.442;6.408;2023-03-01T07:56:07;1.00;;;1.00;;
50002;SDS011;35889;51.442;6.408;2023-03-01T07:58:34;1.10;;;1.10;;
50002;SDS011;35889;51.442;6.408;2023-03-01T08:01:01;1.10;;;1.10;;
50002;SDS011;35889;51.442;6.408;2023-03-01T08:03:27;1.20;;;1.20;;
50002;SDS011;35889;51.442;6.408;2023-03-01T08:05:53;1.10;;;1.10;;
50002;SDS011;35889;51.442;6.408;2023-03-01T08:08:18;1.00;;;1.00;;
50002;SDS011;35889;51.442;6.408;2023-03-01T08:10:44;1.10;;;1.10;;
50002;SDS011;35889;51.442;6.408;2023-03-01T08:13:09;1.10;;;1.10;;
50002;SDS011;35889;51.442;6.408;2023-03-01T08:15:35;1.10;;;1.10;;
50002;SDS011;35889;51.442;6.408;2023-03-01T08:18:00;1.10;;;1.10;;
50002;SDS011;35889;51.442;6.408;2023-03-01T08:20:25;1.00;;;1.00;;
50002;SDS011;35889;51.442;6.408;2023-03-01T08:22:51;1.10;;;1.10;;
50002;SDS011;35889;51.442;6.408;2023-03-01T08:25:16;1.08;;;1.08;;
50002;SDS011;35889;51.442;6.408;2023-03-01T08:27:42;1.10;;;1.10;;
50002;SDS011;35889;51.442;6.408;2023-03-01T08:30:07;1.10;;;1.10;;
50002;SDS011;35889;51.442;6.408;2023-03-01T08:32:39;1.00;;;1.00;;
50002;SDS011;35889;51.442;6.408;2023-03-01T08:35:05;0.93;;;0.93;;
50002;SDS011;35889;51.442;6.408;2023-03-01T08:37:30;1.10;;;1.10;;
50002;SDS011;35889;51.442;6.408;2023-03-01T08:39:58;1.10;;;1.10;;
50002;SDS011;35889;51.442;6.408;2023-03-01T08:42:25;1.10;;;1.10;;
50002;SDS011;35889;51.442;6.408;2023-03-01T08:44:51;1.10;;;1.10;;
50002;SDS011;35889;51.442;6.408;2023-03-01T08:47:16;1.10;;;1.10;;
50002;SDS011;35889;51.442;6.408;2023-03-01T08:49:41;0.93;;;0.93;;
50002;SDS011;35889;51.442;6.408;2023-03-01T08:52:07;1.10;;;1.10;;
50002;SDS011;35889;51.442;6.408;2023-03-01T08:54:32;1.02;;;1.02;;
50002;SDS011;35889;51.442;6.408;2023-03-01T08:56:58;1.00;;;1.00;;
50002;SDS011;35889;51.442;6.408;2023-03-01T08:59:24;1.00;;;1.00;;
50002;SDS011;35889;51.442;6.408;2023-03-01T09:01:50;1.00;;;1.00;;
50002;SDS011;35889;51.442;6.408;2023-03-01T09:04:16;1.00;;;1.00;;
50002;SDS011;35889;51.442;6.408;2023-03-01T09:06:41;1.10;;;1.10;;
50002;SDS011;35889;51.442;6.408;2023-03-01T09:09:10;1.00;;;1.00;;
50002;SDS011;35889;51.442;6.408;2023-03-01T09:11:39;0.90;;;0.90;;
50002;SDS011;35889;51.442;6.408;2023-03-01T09:14:05;1.08;;;1.08;;
50002;SDS011;35889;51.442;6.408;2023-03-01T09:16:31;0.93;;;0.93;;
50002;SDS011;35889;51.442;6.408;2023-03-01T09:19:01;0.93;;;0.93;;
50002;SDS011;35889;51.442;6.408;2023-03-01T09:21:27;1.05;;;1.05;;
50002;SDS011;35889;51.442;6.408;2023-03-01T09:23:52;1.00;;;1.00;;
50002;SDS011;35889;51.442;6.408;2023-03-01T09:26:18;1.00;;;1.00;;
50002;SDS011;35889;51.442;6.408;2023-03-01T09:28:46;1.00;;;1.00;;
50002;SDS011;35889;51.442;6.408;2023-03-01T09:31:13;1.10;;;1.10;;
50002;SDS011;35889;51.442;6.408;2023-03-01T09:33:39;0.90;;;0.90;;
50002;SDS011;35889;51.442;6.408;2023-03-01T09:36:06;1.00;;;1.00;;
50002;SDS011;35889;51.442;6.408;2023-03-01T09:38:33;0.90;;;0.90;;
50002;SDS011;35889;51.442;6.408;2023-03-01T09:40:59;1.00;;;1.00;;
50002;SDS011;35889;51.442;6.408;2023-03-01T09:43:59;0.90;;;0.90;;
50002;SDS011;35889;51.442;6.408;2023-03-01T09:46:25;0.90;;;0.90;;
50002;SDS011;35889;51.442;6.408;2023-03-01T09:51:27;0.90;;;0.90;;
50002;SDS011;35889;51.442;6.408;2023-03-01T09:53:55;1.00;;;1.00;;
50002;SDS011;35889;51.442;6.408;2023-03-01T09:58:55;0.90;;;0.90;;
50002;SDS011;35889;51.442;6.408;2023-03-01T10:07:16;1.00;;;1.00;;
50002;SDS011;35889;51.442;6.408;2023-03-01T10:09:45;1.00;;;1.00;;
50002;SDS011;35889;51.442;6.408;2023-03-01T10:12:18;0.90;;;0.90;;
50002;SDS011;35889;51.442;6.408;2023-03-01T10:20:24;0.90;;;0.90;;
50002;SDS011;35889;51.442;6.408;2023-03-01T10:22:51;1.00;;;1.00;;
50002;SDS011;35889;51.442;6.408;2023-03-01T10:28:17;0.90;;;0.90;;
50002;SDS011;35889;51.442;6.408;2023-03-01T10:30:50;0.90;;;0.90;;
50002;SDS011;35889;51.442;6.408;2023-03-01T10:35:43;1.00;;;1.00;;
50002;SDS011;35889;51.442;6.408;2023-03-01T10:38:09;0.90;;;0.90;;
50002;SDS011;35889;51.442;6.408;2023-03-01T10:40:48;1.00;;;1.00;;
50002;SDS011;35889;51.442;6.408;2023-03-01T10:43:28;0.85;;;0.85;;
50002;SDS011;35889;51.442;6.408;2023-03-01T10:46:19;0.90;;;0.90;;
50002;SDS011;35889;51.442;6.408;2023-03-01T10:48:55;0.90;;;0.90;;
50002;SDS011;35889;51.442;6.408;2023-03-01T10:51:40;0.90;;;0.90;;
50002;SDS011;35889;51.442;6.408;2023-03-01T10:54:18;0.80;;;0.80;;
50002;SDS011;35889;51.442;6.408;2023-03-01T10:56:50;0.90;;;0.90;;
50002;SDS011;35889;51.442;6.408;2023-03-01T10:59:29;0.80;;;0.80;;
50002;SDS011;35889;51.442;6.408;2023-03-01T11:02:03;0.90;;;0.90;;
50002;SDS011;35889;51.442;6.408;2023-03-01T11:04:56;0.90;;;0.90;;
50002;SDS011;35889;51.442;6.408;2023-03-01T11:07:26;0.90;;;0.90;;
50002;SDS011;35889;51.442;6.408;2023-03-01T11:09:51;0.90;;;0.90;;
50002;SDS011;35889;51.442;6.408;2023-03-01T11:12:17;0.90;;;0.90;;
50002;SDS011;35889;51.442;6.408;2023-03-01T11:14:49;0.90;;;0.90;;
50002;SDS011;35889;51.442;6.408;2023-03-01T11:17:21;0.90;;;0.90;;
50002;SDS011;35889;51.442;6.408;2023-03-01T11:20:05;1.00;;;1.00;;
50002;SDS011;35889;51.442;6.408;2023-03-01T11:22:37;0.82;;;0.82;;
50002;SDS011;35889;51.442;6.408;2023-03-01T11:25:11;0.90;;;0.90;;
50002;SDS011;35889;51.442;6.408;2023-03-01T11:27:40;1.00;;;1.00;;
50002;SDS011;35889;51.442;6.408;2023-03-01T11:35:34;0.90;;;0.90;;
50002;SDS011;35889;51.442;6.408;2023-03-01T11:40:41;0.90;;;0.90;;
50002;SDS011;35889;51.442;6.408;2023-03-01T11:43:13;0.90;;;0.90;;
50002;SDS011;35889;51.442;6.408;2023-03-01T11:45:45;0.90;;;0.90;;
50002;SDS011;35889;51.442;6.408;2023-03-01T11:51:13;0.90;;;0.90;;
50002;SDS011;35889;51.442;6.408;2023-03-01T11:56:34;0.90;;;0.90;;
50002;SDS011;35889;51.442;6.408;2023-03-01T11:59:12;1.00;;;1.00;;
50002;SDS011;35889;51.442;6.408;2023-03-01T12:04:59;1.00;;;1.00;;
50002;SDS011;35889;51.442;6.408;2023-03-01T12:07:46;0.73;;;0.73;;
50002;SDS011;35889;51.442;6.408;2023-03-01T12:10:30;1.00;;;1.00;;
50002;SDS011;35889;51.442;6.408;2023-03-01T12:13:12;0.90;;;0.90;;
50002;SDS011;35889;51.442;6.408;2023-03-01T12:16:00;0.90;;;0.90;;
50002;SDS011;35889;51.442;6.408;2023-03-01T12:35:54;0.90;;;0.90;;
50002;SDS011;35889;51.442;6.408;2023-03-01T12:38:33;0.90;;;0.90;;
50002;SDS011;35889;51.442;6.408;2023-03-01T12:41:18;0.90;;;0.90;;
50002;SDS011;35889;51.442;6.408;2023-03-01T12:49:14;1.00;;;1.00;;
50002;SDS011;35889;51.442;6.408;2023-03-01T12:51:43;0.90;;;0.90;;
50002;SDS011;35889;51.442;6.408;2023-03-01T12:54:28;0.90;;;0.90;;
50002;SDS011;35889;51.442;6.408;2023-03-01T12:56:56;0.80;;;0.80;;
50002;SDS011;35889;51.442;6.408;2023-03-01T13:02:13;0.88;;;0.88;;
50002;SDS011;35889;51.442;6.408;2023-03-01T13:04:47;0.90;;;0.90;;
50002;SDS011;35889;51.442;6.408;2023-03-01T13:17:51;0.80;;;0.80;;
50002;SDS011;35889;51.442;6.408;2023-03-01T13:20:19;0.90;;;0.90;;
50002;SDS011;35889;51.442;6.408;2023-03-01T13:23:00;0.90;;;0.90;;
50002;SDS011;35889;51.442;6.408;2023-03-01T13:25:27;0.90;;;0.90;;
50002;SDS011;35889;51.442;6.408;2023-03-01T13:27:52;0.90;;;0.90;;
50002;SDS011;35889;51.442;6.408;2023-03-01T13:30:56;0.90;;;0.90;;
50002;SDS011;35889;51.442;6.408;2023-03-01T13:35:50;1.00;;;1.00;;
50002;SDS011;35889;51.442;6.408;2023-03-01T13:41:14;0.80;;;0.80;;
50002;SDS011;35889;51.442;6.408;2023-03-01T13:43:41;0.90;;;0.90;;
50002;SDS011;35889;51.442;6.408;2023-03-01T13:46:21;0.90;;;0.90;;
50002;SDS011;35889;51.442;6.408;2023-03-01T13:48:52;0.90;;;0.90;;
50002;SDS011;35889;51.442;6.408;2023-03-01T13:51:23;0.90;;;0.90;;
50002;SDS011;35889;51.442;6.408;2023-03-01T13:53:51;0.88;;;0.88;;
50002;SDS011;35889;51.442;6.408;2023-03-01T13:56:36;0.80;;;0.80;;
50002;SDS011;35889;51.442;6.408;2023-03-01T13:59:03;0.90;;;0.90;;
50002;SDS011;35889;51.442;6.408;2023-03-01T14:01:31;0.80;;;0.80;;
50002;SDS011;35889;51.442;6.408;2023-03-01T14:03:58;0.80;;;0.80;;
50002;SDS011;35889;51.442;6.408;2023-03-01T14:06:25;0.90;;;0.90;;
50002;SDS011;35889;51.442;6.408;2023-03-01T14:09:00;0.80;;;0.80;;
50002;SDS011;35889;51.442;6.408;2023-03-01T14:19:19;0.80;;;0.80;;
50002;SDS011;35889;51.442;6.408;2023-03-01T14:21:49;0.80;;;0.80;;
50002;SDS011;35889;51.442;6.408;2023-03-01T14:24:29;0.90;;;0.90;;
50002;SDS011;35889;51.442;6.408;2023-03-01T14:26:57;0.90;;;0.90;;
50002;SDS011;35889;51.442;6.408;2023-03-01T14:29:45;0.90;;;0.90;;
50002;SDS011;35889;51.442;6.408;2023-03-01T14:32:15;0.90;;;0.90;;
50002;SDS011;35889;51.442;6.408;2023-03-01T14:34:45;0.90;;;0.90;;
50002;SDS011;35889;51.442;6.408;2023-03-01T14:39:52;0.80;;;0.80;;
50002;SDS011;35889;51.442;6.408;2023-03-01T14:42:19;1.10;;;1.10;;
50002;SDS011;35889;51.442;6.408;2023-03-01T14:44:46;1.10;;;1.10;;
50002;SDS011;35889;51.442;6.408;2023-03-01T14:47:14;1.20;;;1.20;;
50002;SDS011;35889;51.442;6.408;2023-03-01T14:49:41;1.20;;;1.20;;
50002;SDS011;35889;51.442;6.408;2023-03-01T14:52:16;1.17;;;1.17;;
50002;SDS011;35889;51.442;6.408;2023-03-01T14:54:51;1.10;;;1.10;;
50002;SDS011;35889;51.442;6.408;2023-03-01T14:57:21;1.10;;;1.10;;
50002;SDS011;35889;51.442;6.408;2023-03-01T14:59:50;1.10;;;1.10;;
50002;SDS011;35889;51.442;6.408;2023-03-01T15:02:18;1.10;;;1.10;;
50002;SDS011;35889;51.442;6.408;2023-03-01T15:04:52;1.10;;;1.10;;
50002;SDS011;35889;51.442;6.408;2023-03-01T15:07:32;1.10;;;1.10;;
50002;SDS011;35889;51.442;6.408;2023-03-01T15:09:59;1.10;;;1.10;;
50002;SDS011;35889;51.442;6.408;2023-03-01T15:14:58;1.10;;;1.10;;
50002;SDS011;35889;51.442;6.408;2023-03-01T15:17:36;1.10;;;1.10;;
50002;SDS011;35889;51.442;6.408;2023-03-01T15:20:04;1.10;;;1.10;;
50002;SDS011;35889;51.442;6.408;2023-03-01T15:22:31;1.10;;;1.10;;
50002;SDS011;35889;51.442;6.408;2023-03-01T15:24:57;1.10;;;1.10;;
50002;SDS011;35889;51.442;6.408;2023-03-01T15:27:23;1.10;;;1.10;;
50002;SDS011;35889;51.442;6.408;2023-03-01T15:29:53;1.10;;;1.10;;
50002;SDS011;35889;51.442;6.408;2023-03-01T15:35:00;1.10;;;1.10;;
50002;SDS011;35889;51.442;6.408;2023-03-01T15:37:38;1.10;;;1.10;;
50002;SDS011;35889;51.442;6.408;2023-03-01T15:40:23;1.10;;;1.10;;
50002;SDS011;35889;51.442;6.408;2023-03-01T15:42:58;1.10;;;1.10;;
50002;SDS011;35889;51.442;6.408;2023-03-01T15:45:26;1.10;;;1.10;;
50002;SDS011;35889;51.442;6.408;2023-03-01T15:48:05;1.10;;;1.10;;
50002;SDS011;35889;51.442;6.408;2023-03-01T15:50:40;1.00;;;1.00;;
50002;SDS011;35889;51.442;6.408;2023-03-01T15:53:10;1.10;;;1.10;;
50002;SDS011;35889;51.442;6.408;2023-03-01T15:55:37;1.10;;;1.10;;
50002;SDS011;35889;51.442;6.408;2023-03-01T15:58:04;1.10;;;1.10;;
50002;SDS011;35889;51.442;6.408;2023-03-01T16:00:34;1.00;;;1.00;;
50002;SDS011;35889;51.442;6.408;2023-03-01T16:03:00;1.00;;;1.00;;
50002;SDS011;35889;51.442;6.408;2023-03-01T16:05:29;0.90;;;0.90;;
50002;SDS011;35889;51.442;6.408;2023-03-01T16:07:56;0.80;;;0.80;;
50002;SDS011;35889;51.442;6.408;2023-03-01T16:10:22;0.90;;;0.90;;
50002;SDS011;35889;51.442;6.408;2023-03-01T16:12:48;1.00;;;1.00;;
50002;SDS011;35889;51.442;6.408;2023-03-01T16:15:20;0.80;;;0.80;;
50002;SDS011;35889;51.442;6.408;2023-03-01T16:17:50;0.85;;;0.85;;
50002;SDS011;35889;51.442;6.408;2023-03-01T16:20:20;0.80;;;0.80;;
50002;SDS011;35889;51.442;6.408;2023-03-01T16:22:46;0.80;;;0.80;;
50002;SDS011;35889;51.442;6.408;2023-03-01T16:25:13;0.80;;;0.80;;
50002;SDS011;35889;51.442;6.408;2023-03-01T16:27:43;0.90;;;0.90;;
50002;SDS011;35889;51.442;6.408;2023-03-01T16:30:13;0.90;;;0.90;;
50002;SDS011;35889;51.442;6.408;2023-03-01T16:32:40;0.98;;;0.98;;
50002;SDS011;35889;51.442;6.408;2023-03-01T16:35:06;0.80;;;0.80;;
50002;SDS011;35889;51.442;6.408;2023-03-01T16:37:32;0.90;;;0.90;;
50002;SDS011;35889;51.442;6.408;2023-03-01T16:39:58;0.85;;;0.85;;
50002;SDS011;35889;51.442;6.408;2023-03-01T16:42:24;0.90;;;0.90;;
50002;SDS011;35889;51.442;6.408;2023-03-01T16:44:54;0.80;;;0.80;;
50002;SDS011;35889;51.442;6.408;2023-03-01T16:47:20;0.80;;;0.80;;